Time;durP1;ratioP1;P1;durP2;ratioP2;P2;SDS_P1;SDS_P2;PMS_P1;PMS_P2;Temp;Humidity;BMP_temperature;BMP_pressure;BME280_temperature;BME280_humidity;BME280_pressure;Samples;Min_cycle;Max_cycle;Signal;HPM_P1;HPM_P2
2022/07/14 00:01:08;;;;;;;79.47;23.83;;;;;;;;;;4899543;29;20036;-91
2022/07/14 00:03:34;;;;;;;95.60;24.00;;;;;;;;;;4902878;29;20052;-91
2022/07/14 00:06:00;;;;;;;78.80;24.20;;;;;;;;;;4919018;29;20027;-92
2022/07/14 00:08:26;;;;;;;80.67;24.07;;;;;;;;;;4905236;29;20055;-92
2022/07/14 00:10:53;;;;;;;68.07;22.83;;;;;;;;;;4921048;29;20331;-91
2022/07/14 00:13:20;;;;;;;61.03;22.60;;;;;;;;;;4922975;29;20036;-91
2022/07/14 00:15:46;;;;;;;64.60;22.35;;;;;;;;;;4909442;29;20040;-91
2022/07/14 00:18:12;;;;;;;62.77;24.17;;;;;;;;;;4934028;29;20061;-91
2022/07/14 00:20:40;;;;;;;66.53;23.02;;;;;;;;;;4940410;29;20044;-91
2022/07/14 00:23:06;;;;;;;71.35;23.10;;;;;;;;;;4922388;29;20052;-91
2022/07/14 00:25:54;;;;;;;91.70;23.90;;;;;;;;;;4925279;29;20039;-91
2022/07/14 00:28:20;;;;;;;80.80;25.77;;;;;;;;;;4920564;29;20454;-91
2022/07/14 00:30:50;;;;;;;91.75;26.33;;;;;;;;;;4888736;29;20039;-92
2022/07/14 00:33:17;;;;;;;72.90;26.67;;;;;;;;;;4903994;29;20429;-91
2022/07/14 00:35:43;;;;;;;74.40;27.30;;;;;;;;;;4919490;29;20040;-91
2022/07/14 00:38:10;;;;;;;62.35;26.80;;;;;;;;;;4935485;29;20035;-91
2022/07/14 00:43:04;;;;;;;72.97;24.15;;;;;;;;;;4954310;28;20501;-92
2022/07/14 00:45:31;;;;;;;62.15;24.35;;;;;;;;;;4910959;29;20032;-91
2022/07/14 00:47:57;;;;;;;71.43;25.52;;;;;;;;;;4918447;29;20038;-92
2022/07/14 00:50:23;;;;;;;68.72;24.65;;;;;;;;;;4934383;29;20036;-91
2022/07/14 00:52:50;;;;;;;60.83;22.53;;;;;;;;;;4935030;29;20035;-92
2022/07/14 00:55:20;;;;;;;62.40;23.60;;;;;;;;;;4920452;29;20031;-91
2022/07/14 00:57:46;;;;;;;66.05;24.63;;;;;;;;;;4920480;29;20031;-92
2022/07/14 01:00:14;;;;;;;65.60;26.17;;;;;;;;;;4925479;29;20076;-91
2022/07/14 01:02:41;;;;;;;64.03;28.65;;;;;;;;;;4935005;29;20406;-92
2022/07/14 01:05:07;;;;;;;70.65;27.98;;;;;;;;;;4922742;29;20032;-91
2022/07/14 01:07:33;;;;;;;69.32;27.85;;;;;;;;;;4922228;29;20051;-92
2022/07/14 01:10:00;;;;;;;61.33;29.00;;;;;;;;;;4940203;29;20421;-91
2022/07/14 01:12:26;;;;;;;53.25;25.67;;;;;;;;;;4939808;29;20043;-91
2022/07/14 01:17:22;;;;;;;72.25;26.23;;;;;;;;;;4942716;29;20036;-92
2022/07/14 01:19:48;;;;;;;51.70;23.17;;;;;;;;;;4934039;29;20040;-92
2022/07/14 01:22:15;;;;;;;;;;;;;;;;;;4934695;29;20047;-91
2022/07/14 01:24:41;;;;;;;54.13;25.15;;;;;;;;;;4934147;29;20300;-91
2022/07/14 01:27:07;;;;;;;59.83;27.42;;;;;;;;;;4918425;29;20413;-92
2022/07/14 01:29:35;;;;;;;62.90;27.48;;;;;;;;;;4936527;29;20043;-92
2022/07/14 01:32:03;;;;;;;70.63;31.35;;;;;;;;;;4928394;29;20386;-89
2022/07/14 01:34:29;;;;;;;74.68;31.52;;;;;;;;;;4921494;29;20434;-92
2022/07/14 01:36:57;;;;;;;84.63;33.22;;;;;;;;;;4921507;29;20527;-91
2022/07/14 01:39:23;;;;;;;77.22;33.47;;;;;;;;;;4924135;29;20043;-91
2022/07/14 01:41:49;;;;;;;75.83;34.23;;;;;;;;;;4934219;29;20051;-92
2022/07/14 01:44:16;;;;;;;74.35;32.97;;;;;;;;;;4928890;29;20334;-90
2022/07/14 01:49:08;;;;;;;79.93;33.90;;;;;;;;;;4941200;29;20027;-92
2022/07/14 01:51:34;;;;;;;78.75;33.55;;;;;;;;;;4906527;29;20078;-92
2022/07/14 01:54:04;;;;;;;82.72;33.17;;;;;;;;;;4942832;29;20069;-92
2022/07/14 01:56:41;;;;;;;90.20;35.38;;;;;;;;;;4942438;29;20039;-91
2022/07/14 01:59:09;;;;;;;79.35;35.15;;;;;;;;;;4925061;29;20065;-92
2022/07/14 02:06:42;;;;;;;90.20;38.15;;;;;;;;;;4944419;28;20516;-91
2022/07/14 02:09:14;;;;;;;115.20;44.15;;;;;;;;;;4893211;29;20128;-93
2022/07/14 02:14:27;;;;;;;94.90;39.88;;;;;;;;;;4899567;29;20396;-91
2022/07/14 02:16:55;;;;;;;102.03;39.88;;;;;;;;;;4885569;29;20059;-92
2022/07/14 02:24:58;;;;;;;92.40;37.05;;;;;;;;;;4961264;29;20027;-92
2022/07/14 02:27:25;;;;;;;78.50;30.60;;;;;;;;;;4944041;29;20178;-89
2022/07/14 02:29:53;;;;;;;83.95;31.02;;;;;;;;;;4912705;29;20131;-92
2022/07/14 02:37:54;;;;;;;61.75;24.23;;;;;;;;;;4979439;28;20496;-91
2022/07/14 02:45:44;;;;;;;49.38;20.83;;;;;;;;;;4972608;28;20100;-91
2022/07/14 02:48:11;;;;;;;45.67;20.38;;;;;;;;;;4878657;29;20043;-92
2022/07/14 02:53:05;;;;;;;52.80;18.98;;;;;;;;;;4917225;29;20100;-90
2022/07/14 02:58:14;;;;;;;46.17;14.73;;;;;;;;;;4918134;29;20040;-91
2022/07/14 03:00:41;;;;;;;36.38;13.27;;;;;;;;;;4902042;29;20036;-92
2022/07/14 03:03:09;;;;;;;37.47;13.63;;;;;;;;;;4908146;29;20146;-93
2022/07/14 03:05:36;;;;;;;31.23;11.60;;;;;;;;;;4925930;29;20044;-91
2022/07/14 03:08:02;;;;;;;26.27;12.05;;;;;;;;;;4911413;29;20039;-91
2022/07/14 03:10:29;;;;;;;26.83;11.80;;;;;;;;;;4911919;29;20125;-91
2022/07/14 03:12:55;;;;;;;30.75;11.55;;;;;;;;;;4910967;29;20050;-91
2022/07/14 03:15:21;;;;;;;26.53;11.40;;;;;;;;;;4897527;29;20040;-92
2022/07/14 03:17:47;;;;;;;29.58;12.68;;;;;;;;;;4912755;29;20040;-91
2022/07/14 03:20:13;;;;;;;33.33;12.93;;;;;;;;;;4910501;29;20042;-91
2022/07/14 03:22:40;;;;;;;36.20;15.68;;;;;;;;;;4910297;29;20055;-91
2022/07/14 03:25:13;;;;;;;44.35;16.50;;;;;;;;;;4931075;29;20031;-89
2022/07/14 03:30:09;;;;;;;38.92;15.88;;;;;;;;;;4974408;28;20034;-92
2022/07/14 03:32:36;;;;;;;30.58;14.20;;;;;;;;;;4975304;28;20052;-91
2022/07/14 03:35:05;;;;;;;28.25;12.52;;;;;;;;;;4991569;28;20034;-92
2022/07/14 03:37:31;;;;;;;26.38;13.27;;;;;;;;;;4938610;28;20038;-92
2022/07/14 03:40:06;;;;;;;34.90;14.70;;;;;;;;;;4991602;28;20030;-91
2022/07/14 03:42:32;;;;;;;27.55;11.88;;;;;;;;;;4975217;28;20047;-91
2022/07/14 03:44:59;;;;;;;32.13;13.63;;;;;;;;;;4958158;28;20413;-91
2022/07/14 03:47:26;;;;;;;37.40;12.27;;;;;;;;;;4974038;28;20129;-91
2022/07/14 03:49:53;;;;;;;35.33;12.48;;;;;;;;;;4959036;28;20065;-91
2022/07/14 03:52:19;;;;;;;;;;;;;;;;;;4979126;28;20046;-93
2022/07/14 03:54:46;;;;;;;44.60;17.77;;;;;;;;;;4963141;28;19960;-91
2022/07/14 03:57:14;;;;;;;43.35;15.25;;;;;;;;;;4946018;28;20031;-92
2022/07/14 03:59:42;;;;;;;36.78;14.05;;;;;;;;;;4943931;28;20212;-91
2022/07/14 04:02:12;;;;;;;36.47;15.15;;;;;;;;;;4963526;28;20038;-92
2022/07/14 04:04:39;;;;;;;47.83;16.38;;;;;;;;;;4963857;28;20031;-92
2022/07/14 04:07:07;;;;;;;40.83;16.27;;;;;;;;;;4947125;28;20102;-92
2022/07/14 04:09:34;;;;;;;45.25;17.40;;;;;;;;;;4957037;28;20041;-93
2022/07/14 04:12:01;;;;;;;34.95;16.33;;;;;;;;;;4957429;28;20027;-92
2022/07/14 04:14:27;;;;;;;37.83;17.30;;;;;;;;;;4974681;28;20074;-91
2022/07/14 04:16:53;;;;;;;43.47;16.90;;;;;;;;;;4958459;28;20031;-92
2022/07/14 04:19:21;;;;;;;41.42;17.88;;;;;;;;;;4941604;28;20043;-92
2022/07/14 04:21:47;;;;;;;34.53;18.23;;;;;;;;;;4978999;28;20038;-91
2022/07/14 04:24:14;;;;;;;56.13;22.37;;;;;;;;;;4970091;28;20050;-92
2022/07/14 04:26:42;;;;;;;45.90;21.92;;;;;;;;;;4922427;29;20082;-92
2022/07/14 04:29:08;;;;;;;;;;;;;;;;;;4938419;28;20070;-92
2022/07/14 04:31:35;;;;;;;60.92;21.23;;;;;;;;;;4954594;28;19973;-92
2022/07/14 04:34:02;;;;;;;55.35;22.52;;;;;;;;;;4938334;29;20130;-92
2022/07/14 04:36:29;;;;;;;48.38;21.60;;;;;;;;;;4948616;28;20031;-92
2022/07/14 04:38:57;;;;;;;59.55;21.42;;;;;;;;;;4969787;28;20039;-92
2022/07/14 04:41:25;;;;;;;60.45;21.80;;;;;;;;;;4950677;28;20039;-92
2022/07/14 04:43:52;;;;;;;60.25;22.50;;;;;;;;;;4976973;28;20086;-92
2022/07/14 04:46:18;;;;;;;71.00;25.43;;;;;;;;;;4977049;28;20086;-92
2022/07/14 04:52:11;;;;;;;72.15;25.00;;;;;;;;;;4976078;28;20039;-92
2022/07/14 04:54:56;;;;;;;70.80;24.92;;;;;;;;;;4976173;28;20074;-91
2022/07/14 04:57:47;;;;;;;75.22;25.92;;;;;;;;;;4924896;29;20114;-93
2022/07/14 05:00:15;;;;;;;68.03;24.55;;;;;;;;;;4953426;29;20038;-92
2022/07/14 05:03:17;;;;;;;90.78;28.08;;;;;;;;;;4973032;28;20528;-91
2022/07/14 05:05:46;;;;;;;77.57;27.80;;;;;;;;;;4945687;28;20207;-92
2022/07/14 05:11:35;;;;;;;85.50;27.90;;;;;;;;;;4969828;28;19915;-91
2022/07/14 05:16:49;;;;;;;85.75;28.98;;;;;;;;;;4941164;29;20070;-92
2022/07/14 05:19:19;;;;;;;103.90;31.20;;;;;;;;;;4926448;29;20041;-92
2022/07/14 05:22:23;;;;;;;80.75;29.55;;;;;;;;;;4921967;29;20047;-92
2022/07/14 05:24:49;;;;;;;89.55;30.52;;;;;;;;;;4942453;28;20037;-93
2022/07/14 05:27:18;;;;;;;84.07;29.70;;;;;;;;;;4946520;28;20043;-89
2022/07/14 05:29:44;;;;;;;90.47;31.08;;;;;;;;;;4928761;28;20413;-89
2022/07/14 05:32:12;;;;;;;71.57;31.02;;;;;;;;;;4911795;29;20043;-91
2022/07/14 05:34:42;;;;;;;90.18;30.55;;;;;;;;;;4930408;29;20039;-91
2022/07/14 05:37:11;;;;;;;76.68;30.92;;;;;;;;;;4926920;29;20058;-91
2022/07/14 05:39:38;;;;;;;84.78;30.23;;;;;;;;;;4915093;28;20041;-92
2022/07/14 05:42:07;;;;;;;89.95;32.13;;;;;;;;;;4959422;28;20094;-90
2022/07/14 05:44:35;;;;;;;71.82;26.58;;;;;;;;;;4925581;29;20043;-88
2022/07/14 05:47:02;;;;;;;64.72;25.52;;;;;;;;;;4929980;29;20035;-91
2022/07/14 05:49:28;;;;;;;;;;;;;;;;;;4979746;23;22404;-92
2022/07/14 05:51:54;;;;;;;83.38;25.00;;;;;;;;;;4901620;29;19974;-90
2022/07/14 05:54:23;;;;;;;94.65;28.60;;;;;;;;;;4874162;29;20144;-90
2022/07/14 05:56:51;;;;;;;67.15;26.25;;;;;;;;;;4891685;29;20032;-90
2022/07/14 05:59:23;;;;;;;88.50;27.23;;;;;;;;;;4872153;29;20036;-91
2022/07/14 06:01:50;;;;;;;90.70;27.88;;;;;;;;;;4891168;29;20035;-92
2022/07/14 06:04:18;;;;;;;98.75;29.73;;;;;;;;;;4892044;29;20573;-92
2022/07/14 06:06:46;;;;;;;69.47;26.70;;;;;;;;;;4889257;29;20071;-89
2022/07/14 06:09:15;;;;;;;70.22;25.00;;;;;;;;;;4902471;29;20418;-90
2022/07/14 06:11:45;;;;;;;57.67;23.33;;;;;;;;;;4921832;29;20059;-92
2022/07/14 06:14:17;;;;;;;77.13;22.50;;;;;;;;;;4953730;23;20059;-91
2022/07/14 06:17:04;;;;;;;69.82;23.38;;;;;;;;;;4943130;29;20031;-94
2022/07/14 06:19:31;;;;;;;96.85;27.50;;;;;;;;;;4942753;29;20050;-88
2022/07/14 06:21:58;;;;;;;90.97;25.05;;;;;;;;;;4926489;29;20154;-89
2022/07/14 06:27:16;;;;;;;44.10;16.35;;;;;;;;;;5004557;23;20534;-90
2022/07/14 06:29:44;;;;;;;44.35;14.43;;;;;;;;;;4945018;28;20031;-92
2022/07/14 06:32:14;;;;;;;62.38;17.25;;;;;;;;;;4961929;28;20451;-87
2022/07/14 06:35:07;;;;;;;50.72;15.93;;;;;;;;;;4960804;28;20038;-91
2022/07/14 06:37:49;;;;;;;49.72;17.10;;;;;;;;;;4924784;29;20035;-89
2022/07/14 06:40:15;;;;;;;30.27;16.23;;;;;;;;;;4933271;28;20085;-87
2022/07/14 06:43:10;;;;;;;39.38;16.80;;;;;;;;;;4963493;28;20054;-87
2022/07/14 06:45:44;;;;;;;48.40;17.05;;;;;;;;;;4924564;29;20086;-92
2022/07/14 06:48:14;;;;;;;60.27;17.30;;;;;;;;;;4939207;29;20039;-86
2022/07/14 06:50:40;;;;;;;68.65;18.77;;;;;;;;;;4930587;28;20291;-88
2022/07/14 06:53:06;;;;;;;74.53;19.90;;;;;;;;;;4960369;28;20094;-90
2022/07/14 06:55:33;;;;;;;57.13;17.45;;;;;;;;;;4960978;28;20037;-89
2022/07/14 06:57:59;;;;;;;39.75;15.68;;;;;;;;;;4960888;28;20079;-88
2022/07/14 07:00:31;;;;;;;40.65;16.48;;;;;;;;;;4961549;28;20030;-87
2022/07/14 07:02:58;;;;;;;33.25;14.43;;;;;;;;;;4941663;29;20154;-91
2022/07/14 07:08:08;;;;;;;39.63;15.25;;;;;;;;;;4976695;28;19913;-87
2022/07/14 07:13:56;;;;;;;40.72;15.23;;;;;;;;;;4875567;29;20037;-87
2022/07/14 07:16:22;;;;;;;40.85;15.50;;;;;;;;;;4957151;28;20057;-92
2022/07/14 07:18:57;;;;;;;29.50;14.57;;;;;;;;;;4965032;23;20424;-95
2022/07/14 07:28:40;;;;;;;32.55;12.95;;;;;;;;;;4867592;29;20048;-94
2022/07/14 07:31:47;;;;;;;61.53;17.17;;;;;;;;;;4898368;29;20043;-92
2022/07/14 07:34:16;;;;;;;44.65;15.13;;;;;;;;;;4913534;29;20561;-93
2022/07/14 07:36:43;;;;;;;68.57;15.35;;;;;;;;;;4942636;29;20046;-92
2022/07/14 07:39:09;;;;;;;;;;;;;;;;;;4929262;29;20043;-94
2022/07/14 07:42:01;;;;;;;43.78;14.93;;;;;;;;;;4925176;29;19915;-94
2022/07/14 07:44:30;;;;;;;38.92;14.38;;;;;;;;;;4929244;29;20039;-92
2022/07/14 07:47:02;;;;;;;210.35;25.45;;;;;;;;;;4925756;29;20122;-93
2022/07/14 07:49:32;;;;;;;63.10;15.52;;;;;;;;;;4916162;29;20079;-95
2022/07/14 07:52:25;;;;;;;83.10;17.00;;;;;;;;;;4943003;29;20097;-93
2022/07/14 07:54:54;;;;;;;133.25;22.90;;;;;;;;;;4927103;29;20039;-92
2022/07/14 07:57:21;;;;;;;42.25;14.05;;;;;;;;;;4937661;29;20585;-90
2022/07/14 07:59:49;;;;;;;71.40;16.33;;;;;;;;;;4941486;29;20046;-91
2022/07/14 08:02:15;;;;;;;62.38;16.48;;;;;;;;;;4926178;29;20043;-93
2022/07/14 08:04:46;;;;;;;64.50;18.15;;;;;;;;;;4942885;29;20118;-91
2022/07/14 08:07:13;;;;;;;75.18;17.38;;;;;;;;;;4940876;29;20035;-91
2022/07/14 08:09:39;;;;;;;50.63;14.77;;;;;;;;;;4941153;29;20035;-91
2022/07/14 08:12:05;;;;;;;;;;;;;;;;;;4941932;29;20043;-91
2022/07/14 08:14:50;;;;;;;38.95;12.38;;;;;;;;;;4926827;29;19977;-92
2022/07/14 08:17:16;;;;;;;50.22;12.80;;;;;;;;;;4911432;29;20059;-92
2022/07/14 08:19:43;;;;;;;45.60;12.80;;;;;;;;;;4912755;29;20039;-94
2022/07/14 08:22:10;;;;;;;53.28;13.77;;;;;;;;;;4907663;29;20410;-93
2022/07/14 08:24:36;;;;;;;42.00;12.75;;;;;;;;;;4907831;29;20055;-93
2022/07/14 08:27:03;;;;;;;46.97;15.50;;;;;;;;;;4938784;29;20023;-92
2022/07/14 08:29:30;;;;;;;48.88;12.35;;;;;;;;;;4901624;29;20413;-92
2022/07/14 08:32:00;;;;;;;36.20;12.73;;;;;;;;;;4924291;29;20045;-92
2022/07/14 08:34:28;;;;;;;40.67;11.55;;;;;;;;;;4912791;29;20048;-92
2022/07/14 08:36:58;;;;;;;25.55;10.93;;;;;;;;;;4918134;29;20091;-92
2022/07/14 08:39:24;;;;;;;33.33;10.48;;;;;;;;;;4904055;29;20099;-91
2022/07/14 08:42:00;;;;;;;33.05;9.57;;;;;;;;;;4904577;29;20127;-90
2022/07/14 08:44:37;;;;;;;39.13;11.07;;;;;;;;;;4889749;29;20076;-92
2022/07/14 08:47:04;;;;;;;46.47;11.40;;;;;;;;;;4905809;29;20076;-85
2022/07/14 08:49:31;;;;;;;;;;;;;;;;;;4904950;29;20039;-86
2022/07/14 08:52:02;;;;;;;26.70;10.40;;;;;;;;;;4905155;29;19915;-86
2022/07/14 08:54:29;;;;;;;30.40;9.77;;;;;;;;;;4903793;29;20119;-87
2022/07/14 08:56:56;;;;;;;23.38;9.30;;;;;;;;;;4907743;29;20044;-88
2022/07/14 08:59:24;;;;;;;31.38;10.10;;;;;;;;;;4889267;29;20036;-90
2022/07/14 09:01:51;;;;;;;40.53;9.90;;;;;;;;;;4920917;29;20040;-88
2022/07/14 09:04:17;;;;;;;38.00;9.38;;;;;;;;;;4921524;29;20048;-87
2022/07/14 09:06:52;;;;;;;23.73;8.63;;;;;;;;;;4905973;29;20036;-88
2022/07/14 09:09:25;;;;;;;17.40;9.15;;;;;;;;;;4905449;29;20032;-88
2022/07/14 09:11:55;;;;;;;20.90;9.10;;;;;;;;;;4921986;29;20604;-88
2022/07/14 09:14:22;;;;;;;20.55;8.70;;;;;;;;;;4920796;29;20040;-87
2022/07/14 09:16:49;;;;;;;22.60;9.48;;;;;;;;;;4904878;29;20036;-90
2022/07/14 09:19:15;;;;;;;47.13;9.95;;;;;;;;;;4941617;29;20034;-88
2022/07/14 09:21:55;;;;;;;21.13;9.43;;;;;;;;;;4962814;28;20026;-85
2022/07/14 09:24:25;;;;;;;16.52;8.88;;;;;;;;;;4962467;28;20134;-87
2022/07/14 09:26:52;;;;;;;47.95;11.82;;;;;;;;;;4964410;28;20137;-86
2022/07/14 09:29:30;;;;;;;35.63;9.40;;;;;;;;;;4946662;29;20560;-88
2022/07/14 09:31:57;;;;;;;19.02;9.30;;;;;;;;;;4961268;28;20552;-87
2022/07/14 09:34:33;;;;;;;54.50;13.55;;;;;;;;;;4962447;29;20046;-88
2022/07/14 09:37:13;;;;;;;62.90;11.98;;;;;;;;;;4961428;28;20121;-87
2022/07/14 09:39:51;;;;;;;61.28;12.70;;;;;;;;;;4962392;29;20450;-86
2022/07/14 09:42:17;;;;;;;51.75;10.40;;;;;;;;;;4945828;29;20089;-87
2022/07/14 09:44:48;;;;;;;39.08;10.52;;;;;;;;;;4966337;28;20019;-88
2022/07/14 09:47:13;;;;;;;22.85;9.30;;;;;;;;;;4942002;29;20043;-88
2022/07/14 09:49:41;;;;;;;15.73;8.40;;;;;;;;;;4961075;28;20106;-86
2022/07/14 09:52:07;;;;;;;22.70;9.20;;;;;;;;;;4943578;29;20038;-88
2022/07/14 09:54:36;;;;;;;19.83;8.80;;;;;;;;;;4944103;29;20390;-87
2022/07/14 09:57:15;;;;;;;26.52;10.43;;;;;;;;;;4962657;29;20493;-88
2022/07/14 09:59:44;;;;;;;28.17;10.70;;;;;;;;;;4944105;29;20031;-87
2022/07/14 10:02:19;;;;;;;24.40;10.55;;;;;;;;;;4943207;29;20079;-87
2022/07/14 10:04:45;;;;;;;26.25;13.27;;;;;;;;;;4941200;29;20050;-87
2022/07/14 10:07:12;;;;;;;33.00;12.90;;;;;;;;;;4954716;29;20038;-88
2022/07/14 10:09:38;;;;;;;;;;;;;;;;;;4943725;29;20031;-90
2022/07/14 10:12:06;;;;;;;23.00;10.98;;;;;;;;;;4943852;29;19921;-88
2022/07/14 10:14:33;;;;;;;33.47;14.40;;;;;;;;;;4927861;29;20035;-89
2022/07/14 10:17:01;;;;;;;28.60;11.43;;;;;;;;;;4961386;29;20110;-90
2022/07/14 10:19:28;;;;;;;19.08;9.27;;;;;;;;;;4940321;29;20126;-92
2022/07/14 10:21:55;;;;;;;19.67;10.00;;;;;;;;;;4930166;29;20186;-88
2022/07/14 10:24:25;;;;;;;21.73;10.52;;;;;;;;;;4960481;29;20035;-93
2022/07/14 10:26:53;;;;;;;16.10;9.07;;;;;;;;;;4943755;29;20113;-91
2022/07/14 10:29:19;;;;;;;22.23;10.00;;;;;;;;;;4942338;29;20031;-96
2022/07/14 10:31:45;;;;;;;30.60;13.77;;;;;;;;;;4960938;29;20035;-92
2022/07/14 10:34:14;;;;;;;23.60;10.48;;;;;;;;;;4949977;29;20513;-92
2022/07/14 10:36:59;;;;;;;21.95;11.52;;;;;;;;;;4946890;29;20035;-96
2022/07/14 10:39:32;;;;;;;21.52;12.90;;;;;;;;;;4961342;29;20063;-96
2022/07/14 10:42:05;;;;;;;22.80;12.07;;;;;;;;;;4945201;29;20039;-88
2022/07/14 10:44:32;;;;;;;19.23;9.07;;;;;;;;;;4959394;28;20091;-86
2022/07/14 10:47:09;;;;;;;16.10;8.38;;;;;;;;;;4937863;29;20039;-96
2022/07/14 10:49:57;;;;;;;15.50;8.27;;;;;;;;;;4960540;29;20027;-93
2022/07/14 10:52:31;;;;;;;23.52;8.60;;;;;;;;;;4930191;29;20212;-92
2022/07/14 10:55:12;;;;;;;17.10;8.30;;;;;;;;;;4926094;29;20035;-91
2022/07/14 10:57:39;;;;;;;27.75;8.43;;;;;;;;;;4958142;29;20027;-88
2022/07/14 11:00:07;;;;;;;41.00;15.75;;;;;;;;;;4940861;29;20122;-93
2022/07/14 11:02:38;;;;;;;33.65;15.77;;;;;;;;;;4942276;29;20507;-89
2022/07/14 11:05:11;;;;;;;25.75;14.82;;;;;;;;;;4940559;29;20130;-92
2022/07/14 11:07:39;;;;;;;22.42;11.80;;;;;;;;;;4939751;29;20027;-93
2022/07/14 11:10:19;;;;;;;25.83;11.05;;;;;;;;;;4954698;28;20050;-88
2022/07/14 11:13:04;;;;;;;17.48;9.10;;;;;;;;;;4947542;29;20051;-94
2022/07/14 11:15:38;;;;;;;19.83;9.73;;;;;;;;;;4920940;29;20131;-94
2022/07/14 11:18:26;;;;;;;18.50;9.98;;;;;;;;;;4926509;29;20051;-90
2022/07/14 11:21:00;;;;;;;17.73;10.23;;;;;;;;;;4955708;29;20070;-87
2022/07/14 11:23:28;;;;;;;20.85;11.00;;;;;;;;;;4921553;29;20082;-88
2022/07/14 11:25:55;;;;;;;18.35;10.38;;;;;;;;;;4935204;29;20027;-86
2022/07/14 11:28:33;;;;;;;25.25;11.13;;;;;;;;;;4925568;29;20059;-92
2022/07/14 11:31:09;;;;;;;28.95;12.95;;;;;;;;;;4910002;29;20059;-90
2022/07/14 11:33:36;;;;;;;30.10;13.07;;;;;;;;;;4936222;29;20105;-86
2022/07/14 11:36:20;;;;;;;;;;;;;;;;;;4923377;29;20069;-86
2022/07/14 11:38:46;;;;;;;30.45;13.18;;;;;;;;;;4952890;29;20384;-86
2022/07/14 11:41:14;;;;;;;28.27;12.02;;;;;;;;;;4936562;29;20039;-85
2022/07/14 11:43:40;;;;;;;;;;;;;;;;;;4953711;29;20098;-86
2022/07/14 11:46:17;;;;;;;25.95;10.10;;;;;;;;;;4936973;29;20327;-86
2022/07/14 11:48:44;;;;;;;18.95;9.55;;;;;;;;;;4934354;29;20142;-86
2022/07/14 11:51:17;;;;;;;15.52;8.13;;;;;;;;;;4954681;29;20054;-86
2022/07/14 11:53:43;;;;;;;18.63;8.82;;;;;;;;;;4954781;29;20039;-86
2022/07/14 11:56:10;;;;;;;19.63;9.23;;;;;;;;;;4955623;28;20063;-86
2022/07/14 11:58:40;;;;;;;28.95;9.95;;;;;;;;;;4936575;29;20035;-86
2022/07/14 12:01:07;;;;;;;17.77;8.90;;;;;;;;;;4937916;29;20501;-91
2022/07/14 12:03:37;;;;;;;20.15;9.52;;;;;;;;;;4949252;29;20078;-87
2022/07/14 12:06:04;;;;;;;20.63;9.07;;;;;;;;;;4935671;29;20559;-89
2022/07/14 12:08:32;;;;;;;19.98;8.85;;;;;;;;;;4943397;29;20122;-92
2022/07/14 12:11:10;;;;;;;29.30;10.60;;;;;;;;;;4922261;29;20544;-90
2022/07/14 12:13:56;;;;;;;25.67;9.75;;;;;;;;;;4940473;29;20089;-88
2022/07/14 12:16:23;;;;;;;21.70;8.95;;;;;;;;;;4943680;29;20036;-95
2022/07/14 12:18:54;;;;;;;19.10;8.18;;;;;;;;;;4927752;29;20113;-93
2022/07/14 12:21:34;;;;;;;15.45;8.48;;;;;;;;;;4935034;29;20042;-90
2022/07/14 12:24:01;;;;;;;21.42;8.85;;;;;;;;;;4912725;29;20051;-86
2022/07/14 12:26:27;;;;;;;24.05;9.77;;;;;;;;;;4936292;29;20038;-88
2022/07/14 12:28:55;;;;;;;38.60;10.65;;;;;;;;;;4938285;29;20078;-87
2022/07/14 12:31:21;;;;;;;42.75;19.83;;;;;;;;;;4927181;29;20027;-89
2022/07/14 12:33:47;;;;;;;23.88;10.45;;;;;;;;;;4939717;28;20044;-89
2022/07/14 12:36:15;;;;;;;20.73;9.48;;;;;;;;;;4926427;29;20033;-85
2022/07/14 12:38:41;;;;;;;15.55;8.73;;;;;;;;;;4954395;28;20042;-86
2022/07/14 12:41:08;;;;;;;22.45;8.38;;;;;;;;;;4942395;29;20036;-87
2022/07/14 12:43:39;;;;;;;14.43;8.10;;;;;;;;;;4952493;29;20043;-88
2022/07/14 12:46:05;;;;;;;19.98;8.10;;;;;;;;;;4938051;29;20033;-85
2022/07/14 12:48:33;;;;;;;32.28;8.13;;;;;;;;;;4921380;29;20040;-87
2022/07/14 12:51:18;;;;;;;19.67;7.72;;;;;;;;;;4940398;29;20163;-85
2022/07/14 12:54:02;;;;;;;13.40;7.33;;;;;;;;;;4932976;29;20039;-90
2022/07/14 12:56:31;;;;;;;12.60;7.93;;;;;;;;;;4938404;29;20493;-85
2022/07/14 12:58:59;;;;;;;17.33;7.90;;;;;;;;;;4949565;29;20098;-89
2022/07/14 13:01:25;;;;;;;12.80;7.65;;;;;;;;;;4940413;28;20091;-95
2022/07/14 13:03:53;;;;;;;16.98;7.43;;;;;;;;;;4939009;29;20147;-85
2022/07/14 13:06:21;;;;;;;19.13;8.50;;;;;;;;;;4954805;28;20087;-86
2022/07/14 13:08:48;;;;;;;18.30;8.68;;;;;;;;;;4939811;29;20039;-95
2022/07/14 13:11:16;;;;;;;15.45;8.43;;;;;;;;;;4944578;29;20114;-89
2022/07/14 13:13:44;;;;;;;18.67;8.23;;;;;;;;;;4936413;29;20046;-94
2022/07/14 13:16:19;;;;;;;33.70;8.82;;;;;;;;;;4956850;28;20039;-95
2022/07/14 13:19:02;;;;;;;29.92;9.57;;;;;;;;;;4953770;29;20066;-93
2022/07/14 13:21:50;;;;;;;14.15;8.68;;;;;;;;;;4909740;29;20027;-85
2022/07/14 13:24:18;;;;;;;20.73;7.95;;;;;;;;;;4957386;28;20111;-87
2022/07/14 13:26:44;;;;;;;15.10;8.23;;;;;;;;;;4949981;29;20032;-90
2022/07/14 13:29:10;;;;;;;15.02;7.97;;;;;;;;;;4922041;29;20978;-88
2022/07/14 13:31:36;;;;;;;17.38;7.88;;;;;;;;;;4960382;29;20035;-85
2022/07/14 13:34:03;;;;;;;19.70;8.38;;;;;;;;;;4939340;29;20046;-91
2022/07/14 13:36:30;;;;;;;13.15;8.35;;;;;;;;;;4959119;29;20043;-84
2022/07/14 13:38:56;;;;;;;14.13;8.02;;;;;;;;;;4944079;29;20522;-87
2022/07/14 13:41:23;;;;;;;23.40;8.55;;;;;;;;;;4942570;29;20042;-89
2022/07/14 13:43:56;;;;;;;20.38;7.57;;;;;;;;;;4959266;28;20043;-86
2022/07/14 13:46:23;;;;;;;22.88;10.95;;;;;;;;;;4956922;28;20489;-89
2022/07/14 13:48:49;;;;;;;18.95;8.38;;;;;;;;;;4958534;28;20043;-86
2022/07/14 13:54:00;;;;;;;12.50;7.60;;;;;;;;;;4975666;28;20030;-93
2022/07/14 13:56:27;;;;;;;14.30;7.97;;;;;;;;;;4977923;28;20038;-94
2022/07/14 13:58:55;;;;;;;18.10;8.52;;;;;;;;;;4977500;28;20171;-85
2022/07/14 14:01:21;;;;;;;15.70;8.70;;;;;;;;;;4950246;29;20043;-85
2022/07/14 14:03:47;;;;;;;18.92;9.10;;;;;;;;;;4956533;29;20043;-87
2022/07/14 14:06:14;;;;;;;19.92;9.07;;;;;;;;;;4955760;29;20039;-86
2022/07/14 14:08:43;;;;;;;14.15;7.82;;;;;;;;;;4956643;29;20031;-86
2022/07/14 14:11:09;;;;;;;19.38;7.93;;;;;;;;;;4956959;28;20043;-86
2022/07/14 14:13:35;;;;;;;;;;;;;;;;;;4957242;29;20050;-93
2022/07/14 14:16:01;;;;;;;;;;;;;;;;;;4957578;29;19914;-85
2022/07/14 14:18:30;;;;;;;13.98;7.65;;;;;;;;;;4954292;28;19933;-89
2022/07/14 14:20:58;;;;;;;21.25;8.63;;;;;;;;;;4951821;29;20117;-85
2022/07/14 14:23:26;;;;;;;14.50;7.60;;;;;;;;;;4954630;28;20516;-84
2022/07/14 14:25:53;;;;;;;27.85;9.60;;;;;;;;;;4955842;28;20046;-84
2022/07/14 14:28:19;;;;;;;22.27;8.40;;;;;;;;;;4954687;29;20039;-84
2022/07/14 14:30:46;;;;;;;18.95;9.50;;;;;;;;;;4959080;28;20038;-93
2022/07/14 14:33:15;;;;;;;33.40;12.15;;;;;;;;;;4957539;28;20036;-92
2022/07/14 14:35:41;;;;;;;29.65;9.55;;;;;;;;;;4958318;28;20046;-84
2022/07/14 14:38:07;;;;;;;16.55;8.23;;;;;;;;;;4958362;28;20077;-85
2022/07/14 14:40:34;;;;;;;24.38;8.80;;;;;;;;;;4959610;28;20039;-84
2022/07/14 14:43:00;;;;;;;21.98;9.10;;;;;;;;;;4961147;29;20054;-84
2022/07/14 14:45:27;;;;;;;13.35;8.60;;;;;;;;;;4957418;29;20035;-84
2022/07/14 14:47:53;;;;;;;27.88;10.38;;;;;;;;;;4956108;29;20098;-91
2022/07/14 14:50:19;;;;;;;21.60;8.38;;;;;;;;;;4959367;29;20047;-87
2022/07/14 14:52:48;;;;;;;16.40;7.80;;;;;;;;;;4946636;28;20043;-95
2022/07/14 14:55:15;;;;;;;13.55;8.10;;;;;;;;;;4942143;28;20038;-85
2022/07/14 14:57:45;;;;;;;15.13;7.97;;;;;;;;;;4958303;28;20043;-84
2022/07/14 15:00:13;;;;;;;16.42;8.00;;;;;;;;;;4950426;29;20133;-85
2022/07/14 15:03:03;;;;;;;20.77;7.88;;;;;;;;;;4957231;28;20065;-85
2022/07/14 15:05:31;;;;;;;13.65;7.38;;;;;;;;;;4954509;28;20050;-86
2022/07/14 15:07:57;;;;;;;19.38;7.57;;;;;;;;;;4957002;28;20122;-86
2022/07/14 15:10:28;;;;;;;15.15;7.15;;;;;;;;;;4920943;29;20111;-88
2022/07/14 15:12:54;;;;;;;15.95;7.82;;;;;;;;;;4954533;29;20030;-92
2022/07/14 15:15:26;;;;;;;22.45;8.50;;;;;;;;;;4924436;29;20039;-88
2022/07/14 15:17:52;;;;;;;15.98;7.47;;;;;;;;;;4942515;28;20028;-86
2022/07/14 15:20:18;;;;;;;16.73;7.20;;;;;;;;;;4956513;29;20039;-86
2022/07/14 15:22:44;;;;;;;37.40;8.75;;;;;;;;;;4959193;29;20055;-87
2022/07/14 15:25:11;;;;;;;24.77;8.05;;;;;;;;;;4958665;28;20614;-87
2022/07/14 15:27:37;;;;;;;22.05;8.75;;;;;;;;;;4957993;28;20039;-87
2022/07/14 15:30:04;;;;;;;20.65;7.38;;;;;;;;;;4957291;28;20394;-87
2022/07/14 15:32:30;;;;;;;;;;;;;;;;;;4940361;29;20043;-87
2022/07/14 15:34:56;;;;;;;39.05;8.70;;;;;;;;;;4922477;29;19914;-88
2022/07/14 15:37:24;;;;;;;38.33;9.38;;;;;;;;;;4938698;29;20039;-88
2022/07/14 15:42:34;;;;;;;23.50;8.23;;;;;;;;;;4956252;28;20043;-87
2022/07/14 15:45:00;;;;;;;18.67;7.70;;;;;;;;;;4925565;29;20178;-87
2022/07/14 15:47:29;;;;;;;19.90;6.88;;;;;;;;;;4957219;28;20038;-87
2022/07/14 15:49:57;;;;;;;25.30;6.70;;;;;;;;;;4956211;29;20063;-87